Terminal Aerodrome Forecast
Issued by NWS

Home | Current Version | Previous Version | Text Only | Print | Product List | Glossary On
Versions: 1 2 3 4 5 6 7 8 9 10 11 12 13
000
FTUS44 KOUN 251124
TAFHBR
TAF
KHBR 251124Z 2512/2612 VRB06KT P6SM VCSH SCT070 BKN250
     FM251500 23009KT P6SM SCT060
     FM252100 18009KT P6SM BKN060 PROB30 2523/2605 3SM -TSRA
      OVC060CB=

USA.gov is the U.S. government's official web portal to all federal, state and local government web resources and services.